Terminal Aerodrome Forecast
Issued by NWS

Home | Current Version | Previous Version | Graphics & Text | Print | Product List | Glossary On
Versions: 1 2 3 4 5 6 7 8 9 10 11 12 13 14 15 16 17 18 19 20 21 22 23 24 25 26 27
429
FTUS43 KLOT 200244 AAA
TAFMDW
TAF AMD
KMDW 200244Z 2003/2024 17011KT P6SM BKN045 BKN250
     FM200800 19008KT 4SM -SHRA VCTS OVC035CB
     FM201100 20006KT 5SM BR OVC012
     FM201500 26004KT 3SM BR VCSH OVC007
      TEMPO 2016/2019 -SHRA
     FM201900 02012KT P6SM OVC008=

USA.gov is the U.S. government's official web portal to all federal, state and local government web resources and services.